sensor_id;sensor_type;location;lat;lon;timestamp;pressure;altitude;pressure_sealevel;temperature;humidity
40205;BME280;26963;42.666;23.366;2022-08-07T00:01:10;94692.09;;;25.31;42.73
40205;BME280;26963;42.666;23.366;2022-08-07T00:03:38;94696.41;;;25.32;43.48
40205;BME280;26963;42.666;23.366;2022-08-07T00:06:04;94703.84;;;25.28;43.16
40205;BME280;26963;42.666;23.366;2022-08-07T00:08:30;94704.63;;;25.32;42.53
40205;BME280;26963;42.666;23.366;2022-08-07T00:10:56;94693.66;;;25.28;42.79
40205;BME280;26963;42.666;23.366;2022-08-07T00:13:22;94704.63;;;25.35;42.64
40205;BME280;26963;42.666;23.366;2022-08-07T00:15:51;94703.09;;;25.23;43.57
40205;BME280;26963;42.666;23.366;2022-08-07T00:18:18;94708.53;;;25.31;43.57
40205;BME280;26963;42.666;23.366;2022-08-07T00:20:45;94706.19;;;25.26;43.38
40205;BME280;26963;42.666;23.366;2022-08-07T00:23:10;94698.38;;;25.17;43.04
40205;BME280;26963;42.666;23.366;2022-08-07T00:25:44;94633.88;;;24.76;43.78
40205;BME280;26963;42.666;23.366;2022-08-07T00:28:15;94656.16;;;24.89;43.40
40205;BME280;26963;42.666;23.366;2022-08-07T00:30:41;94693.69;;;25.10;42.71
40205;BME280;26963;42.666;23.366;2022-08-07T00:33:07;94654.63;;;24.81;43.47
40205;BME280;26963;42.666;23.366;2022-08-07T00:35:37;94716.38;;;25.14;44.21
40205;BME280;26963;42.666;23.366;2022-08-07T00:38:03;94712.44;;;25.08;43.87
40205;BME280;26963;42.666;23.366;2022-08-07T00:40:29;94710.13;;;25.06;44.42
40205;BME280;26963;42.666;23.366;2022-08-07T00:42:55;94703.88;;;25.06;45.19
40205;BME280;26963;42.666;23.366;2022-08-07T00:45:21;94704.28;;;25.04;45.50
40205;BME280;26963;42.666;23.366;2022-08-07T00:47:48;94714.03;;;25.09;45.98
40205;BME280;26963;42.666;23.366;2022-08-07T00:50:20;94655.34;;;24.56;44.83
40205;BME280;26963;42.666;23.366;2022-08-07T00:52:45;94632.28;;;24.53;43.90
40205;BME280;26963;42.666;23.366;2022-08-07T00:55:11;94705.81;;;24.95;44.37
40205;BME280;26963;42.666;23.366;2022-08-07T00:57:37;94710.13;;;24.96;44.58
40205;BME280;26963;42.666;23.366;2022-08-07T01:00:11;94706.19;;;24.97;45.25
40205;BME280;26963;42.666;23.366;2022-08-07T01:02:38;94635.81;;;24.50;45.99
40205;BME280;26963;42.666;23.366;2022-08-07T01:05:04;94656.91;;;24.61;45.96
40205;BME280;26963;42.666;23.366;2022-08-07T01:07:31;94710.13;;;24.88;46.43
40205;BME280;26963;42.666;23.366;2022-08-07T01:09:59;94692.91;;;24.77;46.79
40205;BME280;26963;42.666;23.366;2022-08-07T01:12:25;94672.53;;;24.64;47.01
40205;BME280;26963;42.666;23.366;2022-08-07T01:14:51;94718.72;;;24.83;45.82
40205;BME280;26963;42.666;23.366;2022-08-07T01:17:17;94696.00;;;24.57;46.42
40205;BME280;26963;42.666;23.366;2022-08-07T01:19:46;94719.50;;;24.73;46.63
40205;BME280;26963;42.666;23.366;2022-08-07T01:22:12;94727.69;;;24.66;46.31
40205;BME280;26963;42.666;23.366;2022-08-07T01:24:38;94705.31;;;24.42;45.67
40205;BME280;26963;42.666;23.366;2022-08-07T01:27:04;94667.00;;;24.24;45.49
40205;BME280;26963;42.666;23.366;2022-08-07T01:29:29;94717.88;;;24.57;45.18
40205;BME280;26963;42.666;23.366;2022-08-07T01:31:56;94715.50;;;24.52;44.99
40205;BME280;26963;42.666;23.366;2022-08-07T01:34:24;94655.69;;;24.18;45.16
40205;BME280;26963;42.666;23.366;2022-08-07T01:36:53;94720.63;;;24.65;45.58
40205;BME280;26963;42.666;23.366;2022-08-07T01:39:22;94706.13;;;24.46;46.18
40205;BME280;26963;42.666;23.366;2022-08-07T01:41:48;94729.59;;;24.62;46.28
40205;BME280;26963;42.666;23.366;2022-08-07T01:44:13;94623.94;;;23.88;46.46
40205;BME280;26963;42.666;23.366;2022-08-07T01:46:40;94732.78;;;24.78;46.73
40205;BME280;26963;42.666;23.366;2022-08-07T01:49:11;94731.97;;;24.67;46.18
40205;BME280;26963;42.666;23.366;2022-08-07T01:51:38;94745.28;;;24.79;45.60
40205;BME280;26963;42.666;23.366;2022-08-07T01:54:08;94757.78;;;24.84;45.83
40205;BME280;26963;42.666;23.366;2022-08-07T01:56:49;94796.88;;;24.91;45.89
40205;BME280;26963;42.666;23.366;2022-08-07T01:59:41;94796.09;;;24.73;45.83
40205;BME280;26963;42.666;23.366;2022-08-07T02:02:12;94801.47;;;24.51;45.70
40205;BME280;26963;42.666;23.366;2022-08-07T02:04:50;94802.56;;;24.36;45.90
40205;BME280;26963;42.666;23.366;2022-08-07T02:07:23;94800.97;;;24.27;46.40
40205;BME280;26963;42.666;23.366;2022-08-07T02:09:51;94802.50;;;24.21;46.04
40205;BME280;26963;42.666;23.366;2022-08-07T02:12:20;94813.06;;;24.23;46.72
40205;BME280;26963;42.666;23.366;2022-08-07T02:14:55;94813.47;;;24.29;46.25
40205;BME280;26963;42.666;23.366;2022-08-07T02:17:24;94814.69;;;24.35;47.25
40205;BME280;26963;42.666;23.366;2022-08-07T02:19:52;94827.19;;;24.39;47.78
40205;BME280;26963;42.666;23.366;2022-08-07T02:22:27;94811.97;;;24.42;47.83
40205;BME280;26963;42.666;23.366;2022-08-07T02:24:57;94695.66;;;23.67;49.17
40205;BME280;26963;42.666;23.366;2022-08-07T02:27:25;94821.84;;;24.65;49.41
40205;BME280;26963;42.666;23.366;2022-08-07T02:29:54;94784.25;;;24.51;50.00
40205;BME280;26963;42.666;23.366;2022-08-07T02:32:21;94787.47;;;24.67;52.46
40205;BME280;26963;42.666;23.366;2022-08-07T02:34:53;94773.34;;;24.58;53.22
40205;BME280;26963;42.666;23.366;2022-08-07T02:37:21;94730.81;;;23.76;52.94
40205;BME280;26963;42.666;23.366;2022-08-07T02:39:49;94768.31;;;23.79;53.37
40205;BME280;26963;42.666;23.366;2022-08-07T02:42:22;94705.00;;;23.59;55.28
40205;BME280;26963;42.666;23.366;2022-08-07T02:44:49;94762.63;;;24.06;54.72
40205;BME280;26963;42.666;23.366;2022-08-07T02:47:16;94661.69;;;23.57;54.47
40205;BME280;26963;42.666;23.366;2022-08-07T02:49:45;94765.75;;;24.12;53.03
40205;BME280;26963;42.666;23.366;2022-08-07T02:52:16;94694.09;;;23.70;54.00
40205;BME280;26963;42.666;23.366;2022-08-07T02:54:46;94721.66;;;24.13;54.67
40205;BME280;26963;42.666;23.366;2022-08-07T02:57:14;94729.84;;;24.17;53.19
40205;BME280;26963;42.666;23.366;2022-08-07T02:59:45;94740.81;;;24.20;54.16
40205;BME280;26963;42.666;23.366;2022-08-07T03:02:14;94710.28;;;24.04;52.55
40205;BME280;26963;42.666;23.366;2022-08-07T03:04:42;94745.50;;;24.23;53.77
40205;BME280;26963;42.666;23.366;2022-08-07T03:07:09;94740.44;;;24.29;53.85
40205;BME280;26963;42.666;23.366;2022-08-07T03:09:39;94740.44;;;24.29;54.67
40205;BME280;26963;42.666;23.366;2022-08-07T03:12:09;94719.31;;;24.19;54.89
40205;BME280;26963;42.666;23.366;2022-08-07T03:14:41;94688.44;;;24.04;54.09
40205;BME280;26963;42.666;23.366;2022-08-07T03:17:10;94668.09;;;23.98;53.22
40205;BME280;26963;42.666;23.366;2022-08-07T03:19:39;94667.72;;;23.96;53.22
40205;BME280;26963;42.666;23.366;2022-08-07T03:22:05;94729.16;;;24.38;53.63
40205;BME280;26963;42.666;23.366;2022-08-07T03:24:34;94726.06;;;24.50;53.22
40205;BME280;26963;42.666;23.366;2022-08-07T03:27:09;94685.75;;;24.15;53.47
40205;BME280;26963;42.666;23.366;2022-08-07T03:29:45;94667.72;;;24.03;54.85
40205;BME280;26963;42.666;23.366;2022-08-07T03:32:13;94720.16;;;24.34;54.33
40205;BME280;26963;42.666;23.366;2022-08-07T03:34:44;94743.59;;;24.35;54.56
40205;BME280;26963;42.666;23.366;2022-08-07T03:37:10;94735.00;;;24.33;55.33
40205;BME280;26963;42.666;23.366;2022-08-07T03:39:37;94738.88;;;24.32;56.02
40205;BME280;26963;42.666;23.366;2022-08-07T03:42:04;94742.78;;;24.31;56.18
40205;BME280;26963;42.666;23.366;2022-08-07T03:44:39;94719.34;;;24.22;56.33
40205;BME280;26963;42.666;23.366;2022-08-07T03:47:09;94667.59;;;23.74;56.64
40205;BME280;26963;42.666;23.366;2022-08-07T03:49:39;94736.44;;;24.05;57.50
40205;BME280;26963;42.666;23.366;2022-08-07T03:52:08;94695.59;;;23.56;58.33
40205;BME280;26963;42.666;23.366;2022-08-07T03:54:42;94747.94;;;23.66;58.89
40205;BME280;26963;42.666;23.366;2022-08-07T03:57:11;94765.94;;;23.77;58.74
40205;BME280;26963;42.666;23.366;2022-08-07T03:59:38;94764.81;;;23.82;59.09
40205;BME280;26963;42.666;23.366;2022-08-07T04:02:05;94748.00;;;23.80;60.79
40205;BME280;26963;42.666;23.366;2022-08-07T04:04:32;94759.84;;;23.99;61.20
40205;BME280;26963;42.666;23.366;2022-08-07T04:06:58;94693.38;;;23.80;61.43
40205;BME280;26963;42.666;23.366;2022-08-07T04:09:26;94761.63;;;24.50;60.07
40205;BME280;26963;42.666;23.366;2022-08-07T04:11:52;94750.75;;;24.72;57.86
40205;BME280;26963;42.666;23.366;2022-08-07T04:14:19;94761.31;;;24.91;56.82
40205;BME280;26963;42.666;23.366;2022-08-07T04:16:46;94740.59;;;24.94;57.23
40205;BME280;26963;42.666;23.366;2022-08-07T04:19:13;94762.53;;;25.27;57.16
40205;BME280;26963;42.666;23.366;2022-08-07T04:21:39;94769.19;;;25.47;56.02
40205;BME280;26963;42.666;23.366;2022-08-07T04:24:06;94778.16;;;25.66;57.17
40205;BME280;26963;42.666;23.366;2022-08-07T04:26:40;94766.00;;;25.81;55.62
40205;BME280;26963;42.666;23.366;2022-08-07T04:29:08;94683.50;;;25.36;54.60
40205;BME280;26963;42.666;23.366;2022-08-07T04:31:39;94762.44;;;25.92;54.42
40205;BME280;26963;42.666;23.366;2022-08-07T04:34:06;94746.47;;;25.72;55.78
40205;BME280;26963;42.666;23.366;2022-08-07T04:36:32;94760.94;;;25.76;55.08
40205;BME280;26963;42.666;23.366;2022-08-07T04:39:00;94746.09;;;25.63;55.58
40205;BME280;26963;42.666;23.366;2022-08-07T04:41:25;94786.38;;;25.69;56.55
40205;BME280;26963;42.666;23.366;2022-08-07T04:43:54;94732.81;;;25.32;56.71
40205;BME280;26963;42.666;23.366;2022-08-07T05:00:18;94805.53;;;25.91;57.53
40205;BME280;26963;42.666;23.366;2022-08-07T05:03:02;94807.50;;;26.05;57.77
40205;BME280;26963;42.666;23.366;2022-08-07T05:05:41;94801.59;;;26.10;56.97
40205;BME280;26963;42.666;23.366;2022-08-07T05:11:11;94805.50;;;26.16;55.42
40205;BME280;26963;42.666;23.366;2022-08-07T05:13:50;94787.09;;;25.99;56.36
40205;BME280;26963;42.666;23.366;2022-08-07T05:16:17;94807.88;;;26.07;55.21
40205;BME280;26963;42.666;23.366;2022-08-07T05:18:53;94759.38;;;25.68;55.50
40205;BME280;26963;42.666;23.366;2022-08-07T05:21:22;94803.97;;;25.97;55.29
40205;BME280;26963;42.666;23.366;2022-08-07T05:23:59;94755.47;;;25.62;56.46
40205;BME280;26963;42.666;23.366;2022-08-07T05:26:31;94808.69;;;25.89;56.21
40205;BME280;26963;42.666;23.366;2022-08-07T05:29:00;94779.75;;;25.63;55.52
40205;BME280;26963;42.666;23.366;2022-08-07T05:31:36;94825.13;;;25.86;56.02
40205;BME280;26963;42.666;23.366;2022-08-07T05:34:05;94751.97;;;25.36;55.77
40205;BME280;26963;42.666;23.366;2022-08-07T05:36:33;94795.81;;;25.54;56.33
40205;BME280;26963;42.666;23.366;2022-08-07T05:38:59;94825.53;;;25.84;55.33
40205;BME280;26963;42.666;23.366;2022-08-07T05:41:26;94838.41;;;25.84;54.16
40205;BME280;26963;42.666;23.366;2022-08-07T05:43:54;94822.00;;;25.73;54.16
40205;BME280;26963;42.666;23.366;2022-08-07T05:46:27;94798.13;;;25.48;54.39
40205;BME280;26963;42.666;23.366;2022-08-07T05:48:57;94840.78;;;25.78;55.11
40205;BME280;26963;42.666;23.366;2022-08-07T05:51:26;94842.34;;;25.79;54.70
40205;BME280;26963;42.666;23.366;2022-08-07T05:53:52;94845.47;;;25.81;54.42
40205;BME280;26963;42.666;23.366;2022-08-07T05:56:18;94792.66;;;25.41;53.26
40205;BME280;26963;42.666;23.366;2022-08-07T05:58:46;94865.06;;;25.83;52.91
40205;BME280;26963;42.666;23.366;2022-08-07T06:01:13;94728.50;;;25.10;53.18
40205;BME280;26963;42.666;23.366;2022-08-07T06:03:46;94810.28;;;25.62;53.10
40205;BME280;26963;42.666;23.366;2022-08-07T06:06:22;94859.94;;;25.93;55.25
40205;BME280;26963;42.666;23.366;2022-08-07T06:08:49;94859.53;;;25.94;55.28
40205;BME280;26963;42.666;23.366;2022-08-07T06:11:21;94800.09;;;25.59;54.77
40205;BME280;26963;42.666;23.366;2022-08-07T06:13:50;94853.28;;;25.97;53.21
40205;BME280;26963;42.666;23.366;2022-08-07T06:16:21;94863.88;;;26.06;54.36
40205;BME280;26963;42.666;23.366;2022-08-07T06:18:51;94871.31;;;26.13;52.03
40205;BME280;26963;42.666;23.366;2022-08-07T06:21:18;94804.00;;;25.76;51.48
40205;BME280;26963;42.666;23.366;2022-08-07T06:23:44;94817.31;;;25.84;53.86
40205;BME280;26963;42.666;23.366;2022-08-07T06:26:12;94865.81;;;26.20;54.01
40205;BME280;26963;42.666;23.366;2022-08-07T06:28:49;94861.91;;;26.21;53.13
40205;BME280;26963;42.666;23.366;2022-08-07T06:31:16;94850.13;;;26.20;50.84
40205;BME280;26963;42.666;23.366;2022-08-07T06:33:49;94795.34;;;26.06;51.97
40205;BME280;26963;42.666;23.366;2022-08-07T06:36:17;94875.78;;;28.84;47.09
40205;BME280;26963;42.666;23.366;2022-08-07T06:39:04;94818.41;;;31.46;40.11
40205;BME280;26963;42.666;23.366;2022-08-07T06:41:34;94799.09;;;33.83;34.58
40205;BME280;26963;42.666;23.366;2022-08-07T06:44:02;94810.13;;;35.60;31.08
40205;BME280;26963;42.666;23.366;2022-08-07T06:46:31;94866.00;;;37.24;28.63
40205;BME280;26963;42.666;23.366;2022-08-07T06:49:00;94825.66;;;38.26;26.44
40205;BME280;26963;42.666;23.366;2022-08-07T06:51:32;94854.97;;;39.59;24.56
40205;BME280;26963;42.666;23.366;2022-08-07T06:54:00;94829.09;;;40.00;23.37
40205;BME280;26963;42.666;23.366;2022-08-07T06:56:30;94870.66;;;40.90;22.16
40205;BME280;26963;42.666;23.366;2022-08-07T06:59:15;94874.34;;;41.28;21.38
40205;BME280;26963;42.666;23.366;2022-08-07T07:01:45;94856.47;;;41.57;21.18
40205;BME280;26963;42.666;23.366;2022-08-07T07:04:15;94875.16;;;40.82;21.49
40205;BME280;26963;42.666;23.366;2022-08-07T07:06:41;94880.91;;;41.19;21.30
40205;BME280;26963;42.666;23.366;2022-08-07T07:09:45;94867.69;;;41.52;20.59
40205;BME280;26963;42.666;23.366;2022-08-07T07:17:40;94851.81;;;41.49;20.10
40205;BME280;26963;42.666;23.366;2022-08-07T07:20:10;94855.63;;;41.14;20.40
40205;BME280;26963;42.666;23.366;2022-08-07T07:22:37;94843.66;;;40.66;21.00
40205;BME280;26963;42.666;23.366;2022-08-07T07:25:08;94843.81;;;40.16;21.80
40205;BME280;26963;42.666;23.366;2022-08-07T07:27:39;94867.00;;;40.57;21.80
40205;BME280;26963;42.666;23.366;2022-08-07T07:30:10;94826.78;;;40.87;21.09
40205;BME280;26963;42.666;23.366;2022-08-07T07:32:40;94824.91;;;41.04;20.04
40205;BME280;26963;42.666;23.366;2022-08-07T07:35:09;94808.84;;;41.75;19.84
40205;BME280;26963;42.666;23.366;2022-08-07T07:37:38;94860.16;;;42.13;18.35
40205;BME280;26963;42.666;23.366;2022-08-07T07:40:11;94811.25;;;41.93;19.14
40205;BME280;26963;42.666;23.366;2022-08-07T07:42:39;94865.66;;;41.26;19.51
40205;BME280;26963;42.666;23.366;2022-08-07T07:45:09;94882.22;;;40.30;20.21
40205;BME280;26963;42.666;23.366;2022-08-07T07:47:40;94841.84;;;38.61;21.69
40205;BME280;26963;42.666;23.366;2022-08-07T07:50:17;94878.94;;;39.75;21.28
40205;BME280;26963;42.666;23.366;2022-08-07T07:52:45;94860.78;;;39.56;20.69
40205;BME280;26963;42.666;23.366;2022-08-07T07:55:11;94868.31;;;40.21;20.27
40205;BME280;26963;42.666;23.366;2022-08-07T07:57:39;94878.28;;;39.86;20.89
40205;BME280;26963;42.666;23.366;2022-08-07T08:00:05;94873.25;;;39.90;20.80
40205;BME280;26963;42.666;23.366;2022-08-07T08:02:33;94864.72;;;40.15;20.04
40205;BME280;26963;42.666;23.366;2022-08-07T08:05:02;94825.59;;;40.26;19.71
40205;BME280;26963;42.666;23.366;2022-08-07T08:07:38;94887.38;;;40.37;20.58
40205;BME280;26963;42.666;23.366;2022-08-07T08:10:09;94878.28;;;39.86;20.34
40205;BME280;26963;42.666;23.366;2022-08-07T08:12:38;94843.00;;;38.54;21.21
40205;BME280;26963;42.666;23.366;2022-08-07T08:15:04;94889.47;;;38.27;21.73
40205;BME280;26963;42.666;23.366;2022-08-07T08:17:36;94872.72;;;38.66;21.35
40205;BME280;26963;42.666;23.366;2022-08-07T08:20:06;94882.31;;;38.50;21.82
40205;BME280;26963;42.666;23.366;2022-08-07T08:22:40;94888.78;;;38.57;22.42
40205;BME280;26963;42.666;23.366;2022-08-07T08:25:32;94883.09;;;37.69;22.62
40205;BME280;26963;42.666;23.366;2022-08-07T08:28:27;94832.63;;;38.06;21.97
40205;BME280;26963;42.666;23.366;2022-08-07T08:30:58;94870.03;;;37.75;22.77
40205;BME280;26963;42.666;23.366;2022-08-07T08:33:28;94871.84;;;38.12;22.21
40205;BME280;26963;42.666;23.366;2022-08-07T08:35:58;94821.63;;;38.02;22.45
40205;BME280;26963;42.666;23.366;2022-08-07T08:38:48;94876.06;;;39.25;21.78
40205;BME280;26963;42.666;23.366;2022-08-07T08:44:07;94877.78;;;39.67;21.11
40205;BME280;26963;42.666;23.366;2022-08-07T08:46:47;94894.59;;;38.29;21.52
40205;BME280;26963;42.666;23.366;2022-08-07T08:52:18;94890.63;;;39.59;20.17
40205;BME280;26963;42.666;23.366;2022-08-07T08:54:58;94895.91;;;39.72;20.45
40205;BME280;26963;42.666;23.366;2022-08-07T08:57:36;94879.22;;;38.48;21.24
40205;BME280;26963;42.666;23.366;2022-08-07T09:00:08;94870.91;;;36.77;23.32
40205;BME280;26963;42.666;23.366;2022-08-07T09:02:50;94899.31;;;36.07;24.41
40205;BME280;26963;42.666;23.366;2022-08-07T09:05:32;94891.34;;;36.55;23.94
40205;BME280;26963;42.666;23.366;2022-08-07T09:11:17;94769.88;;;37.01;22.86
40205;BME280;26963;42.666;23.366;2022-08-07T09:14:06;94876.06;;;37.83;23.01
40205;BME280;26963;42.666;23.366;2022-08-07T09:16:53;94824.25;;;37.82;22.62
40205;BME280;26963;42.666;23.366;2022-08-07T09:22:05;94864.63;;;35.89;24.65
40205;BME280;26963;42.666;23.366;2022-08-07T09:24:45;94806.03;;;34.80;26.27
40205;BME280;26963;42.666;23.366;2022-08-07T09:30:08;94859.03;;;33.93;27.36
40205;BME280;26963;42.666;23.366;2022-08-07T09:32:59;94854.84;;;33.50;28.38
40205;BME280;26963;42.666;23.366;2022-08-07T09:38:11;94814.97;;;32.50;28.74
40205;BME280;26963;42.666;23.366;2022-08-07T09:51:57;94778.19;;;31.08;30.73
40205;BME280;26963;42.666;23.366;2022-08-07T09:54:44;94839.84;;;31.75;30.41
40205;BME280;26963;42.666;23.366;2022-08-07T09:57:20;94859.22;;;31.91;30.00
40205;BME280;26963;42.666;23.366;2022-08-07T10:20:06;94802.88;;;31.68;30.47
40205;BME280;26963;42.666;23.366;2022-08-07T10:25:26;94819.47;;;31.68;29.57
40205;BME280;26963;42.666;23.366;2022-08-07T10:30:52;94822.72;;;31.96;30.50
40205;BME280;26963;42.666;23.366;2022-08-07T10:39:10;94838.22;;;31.08;30.78
40205;BME280;26963;42.666;23.366;2022-08-07T10:41:47;94760.38;;;30.56;30.33
40205;BME280;26963;42.666;23.366;2022-08-07T10:44:19;94776.63;;;30.70;30.40
40205;BME280;26963;42.666;23.366;2022-08-07T10:46:53;94843.41;;;31.22;30.71
40205;BME280;26963;42.666;23.366;2022-08-07T10:50:02;94838.41;;;31.17;31.39
40205;BME280;26963;42.666;23.366;2022-08-07T10:55:17;94832.81;;;31.00;31.04
40205;BME280;26963;42.666;23.366;2022-08-07T11:00:35;94825.22;;;31.04;29.44
40205;BME280;26963;42.666;23.366;2022-08-07T11:03:16;94814.28;;;30.81;30.08
40205;BME280;26963;42.666;23.366;2022-08-07T11:06:19;94820.97;;;30.63;31.61
40205;BME280;26963;42.666;23.366;2022-08-07T11:08:57;94782.00;;;30.37;32.05
40205;BME280;26963;42.666;23.366;2022-08-07T11:11:32;94764.06;;;30.29;31.80
40205;BME280;26963;42.666;23.366;2022-08-07T11:22:28;94834.59;;;30.30;33.64
40205;BME280;26963;42.666;23.366;2022-08-07T11:36:10;94817.84;;;30.61;33.59
40205;BME280;26963;42.666;23.366;2022-08-07T11:39:12;94820.81;;;30.30;34.56
40205;BME280;26963;42.666;23.366;2022-08-07T11:50:20;94847.03;;;30.18;34.62
40205;BME280;26963;42.666;23.366;2022-08-07T11:53:12;94832.31;;;30.25;35.16
40205;BME280;26963;42.666;23.366;2022-08-07T11:56:24;94841.09;;;30.40;34.69
40205;BME280;26963;42.666;23.366;2022-08-07T12:02:12;94807.34;;;30.32;34.59
40205;BME280;26963;42.666;23.366;2022-08-07T12:07:59;94841.41;;;30.02;35.66
40205;BME280;26963;42.666;23.366;2022-08-07T12:10:42;94830.91;;;29.93;36.11
40205;BME280;26963;42.666;23.366;2022-08-07T12:13:26;94839.91;;;29.73;37.12
40205;BME280;26963;42.666;23.366;2022-08-07T12:16:02;94805.06;;;29.36;36.51
40205;BME280;26963;42.666;23.366;2022-08-07T12:24:19;94835.34;;;29.63;36.87
40205;BME280;26963;42.666;23.366;2022-08-07T12:26:53;94762.59;;;29.33;37.23
40205;BME280;26963;42.666;23.366;2022-08-07T12:29:45;94821.75;;;29.76;37.16
40205;BME280;26963;42.666;23.366;2022-08-07T12:32:26;94770.28;;;29.45;37.03
40205;BME280;26963;42.666;23.366;2022-08-07T12:34:57;94805.41;;;29.89;36.82
40205;BME280;26963;42.666;23.366;2022-08-07T12:37:25;94791.06;;;30.18;36.33
40205;BME280;26963;42.666;23.366;2022-08-07T12:39:56;94798.44;;;30.24;36.73
40205;BME280;26963;42.666;23.366;2022-08-07T12:42:27;94646.38;;;29.15;35.31
40205;BME280;26963;42.666;23.366;2022-08-07T12:44:53;94793.81;;;29.98;35.80
40205;BME280;26963;42.666;23.366;2022-08-07T12:50:15;94801.03;;;29.88;34.90
40205;BME280;26963;42.666;23.366;2022-08-07T12:52:59;94803.03;;;29.87;35.24
40205;BME280;26963;42.666;23.366;2022-08-07T12:55:55;94804.06;;;29.73;35.77
40205;BME280;26963;42.666;23.366;2022-08-07T12:58:23;94790.59;;;29.55;35.52
40205;BME280;26963;42.666;23.366;2022-08-07T13:09:59;94788.09;;;29.37;36.15
40205;BME280;26963;42.666;23.366;2022-08-07T13:13:35;94789.78;;;29.31;36.78
40205;BME280;26963;42.666;23.366;2022-08-07T13:15:55;94776.00;;;29.31;36.22
40205;BME280;26963;42.666;23.366;2022-08-07T13:18:42;94772.03;;;29.32;35.88
40205;BME280;26963;42.666;23.366;2022-08-07T13:21:27;94609.78;;;28.39;36.34
40205;BME280;26963;42.666;23.366;2022-08-07T13:26:43;94769.97;;;29.64;35.37
40205;BME280;26963;42.666;23.366;2022-08-07T13:29:17;94685.19;;;29.24;34.81
40205;BME280;26963;42.666;23.366;2022-08-07T13:32:03;94763.28;;;29.85;34.49
40205;BME280;26963;42.666;23.366;2022-08-07T13:40:29;94751.78;;;29.66;33.84
40205;BME280;26963;42.666;23.366;2022-08-07T13:43:13;94771.31;;;29.75;34.57
40205;BME280;26963;42.666;23.366;2022-08-07T13:45:44;94704.34;;;29.31;34.97
40205;BME280;26963;42.666;23.366;2022-08-07T13:48:11;94701.97;;;29.33;34.64
40205;BME280;26963;42.666;23.366;2022-08-07T13:50:40;94734.88;;;29.64;34.68
40205;BME280;26963;42.666;23.366;2022-08-07T13:53:07;94708.66;;;29.56;34.69
40205;BME280;26963;42.666;23.366;2022-08-07T13:55:38;94780.94;;;29.91;35.05
40205;BME280;26963;42.666;23.366;2022-08-07T13:58:08;94726.72;;;29.60;34.57
40205;BME280;26963;42.666;23.366;2022-08-07T14:00:53;94759.47;;;29.78;34.24
40205;BME280;26963;42.666;23.366;2022-08-07T14:03:21;94711.88;;;29.27;35.31
40205;BME280;26963;42.666;23.366;2022-08-07T14:05:54;94777.41;;;29.43;34.61
40205;BME280;26963;42.666;23.366;2022-08-07T14:08:27;94709.34;;;28.89;35.37
40205;BME280;26963;42.666;23.366;2022-08-07T14:10:54;94776.56;;;29.19;35.28
40205;BME280;26963;42.666;23.366;2022-08-07T14:13:25;94788.06;;;29.13;35.63
40205;BME280;26963;42.666;23.366;2022-08-07T14:15:57;94794.66;;;28.92;36.06
40205;BME280;26963;42.666;23.366;2022-08-07T14:18:38;94644.22;;;27.89;36.08
40205;BME280;26963;42.666;23.366;2022-08-07T14:21:12;94816.63;;;28.96;35.92
40205;BME280;26963;42.666;23.366;2022-08-07T14:23:48;94813.03;;;28.99;35.03
40205;BME280;26963;42.666;23.366;2022-08-07T14:26:21;94785.25;;;28.90;35.21
40205;BME280;26963;42.666;23.366;2022-08-07T14:28:48;94786.59;;;29.05;35.42
40205;BME280;26963;42.666;23.366;2022-08-07T14:31:15;94798.66;;;29.15;35.03
40205;BME280;26963;42.666;23.366;2022-08-07T14:33:45;94745.03;;;28.69;35.67
40205;BME280;26963;42.666;23.366;2022-08-07T14:36:12;94799.81;;;29.18;35.93
40205;BME280;26963;42.666;23.366;2022-08-07T14:38:39;94773.13;;;29.11;36.12
40205;BME280;26963;42.666;23.366;2022-08-07T14:41:17;94777.63;;;29.25;36.99
40205;BME280;26963;42.666;23.366;2022-08-07T14:43:48;94746.53;;;29.01;36.92
40205;BME280;26963;42.666;23.366;2022-08-07T14:46:21;94722.34;;;28.88;36.97
40205;BME280;26963;42.666;23.366;2022-08-07T14:49:03;94789.28;;;29.36;37.31
40205;BME280;26963;42.666;23.366;2022-08-07T14:51:30;94798.78;;;29.35;37.55
40205;BME280;26963;42.666;23.366;2022-08-07T14:53:58;94740.38;;;29.17;36.84
40205;BME280;26963;42.666;23.366;2022-08-07T14:56:28;94781.16;;;29.29;37.18
40205;BME280;26963;42.666;23.366;2022-08-07T14:59:04;94788.47;;;29.39;36.75
40205;BME280;26963;42.666;23.366;2022-08-07T15:01:37;94717.38;;;29.03;37.02
40205;BME280;26963;42.666;23.366;2022-08-07T15:04:07;94727.56;;;29.06;36.87
40205;BME280;26963;42.666;23.366;2022-08-07T15:06:37;94699.75;;;28.97;36.66
40205;BME280;26963;42.666;23.366;2022-08-07T15:09:16;94731.66;;;29.22;36.34
40205;BME280;26963;42.666;23.366;2022-08-07T15:11:49;94772.66;;;29.43;36.12
40205;BME280;26963;42.666;23.366;2022-08-07T15:14:20;94774.22;;;29.44;36.47
40205;BME280;26963;42.666;23.366;2022-08-07T15:16:58;94727.91;;;29.08;36.55
40205;BME280;26963;42.666;23.366;2022-08-07T15:19:32;94765.28;;;29.37;36.70
40205;BME280;26963;42.666;23.366;2022-08-07T15:22:01;94757.78;;;29.37;36.93
40205;BME280;26963;42.666;23.366;2022-08-07T15:24:33;94729.59;;;29.26;36.43
40205;BME280;26963;42.666;23.366;2022-08-07T15:27:05;94782.84;;;29.47;36.11
40205;BME280;26963;42.666;23.366;2022-08-07T15:29:40;94714.38;;;28.94;36.54
40205;BME280;26963;42.666;23.366;2022-08-07T15:32:08;94730.22;;;28.86;36.59
40205;BME280;26963;42.666;23.366;2022-08-07T15:34:54;94714.78;;;28.65;37.00
40205;BME280;26963;42.666;23.366;2022-08-07T15:37:23;94778.94;;;28.89;37.75
40205;BME280;26963;42.666;23.366;2022-08-07T15:40:04;94776.53;;;28.95;37.37
40205;BME280;26963;42.666;23.366;2022-08-07T15:45:05;94786.69;;;28.98;37.71
40205;BME280;26963;42.666;23.366;2022-08-07T15:47:43;94729.84;;;28.57;37.64